createdAt,value
2023-05-12T00:02:10.593Z,101442.41
2023-05-12T00:04:39.624Z,101446.31
2023-05-12T00:07:09.044Z,101440.97
2023-05-12T00:09:38.387Z,101439.53
2023-05-12T00:12:06.963Z,101438.09
2023-05-12T00:14:35.359Z,101443.47
2023-05-12T00:17:03.961Z,101434.69
2023-05-12T00:19:32.777Z,101431.28
2023-05-12T00:22:02.039Z,101431.28
2023-05-12T00:24:31.229Z,101435.94
2023-05-12T00:27:00.152Z,101429.84
2023-05-12T00:29:29.606Z,101431.84
2023-05-12T00:31:59.017Z,101433.78
2023-05-12T00:34:28.404Z,101422.38
2023-05-12T00:36:56.765Z,101427.00
2023-05-12T00:39:25.676Z,101426.28
2023-05-12T00:41:53.786Z,101421.63
2023-05-12T00:44:22.697Z,101420.91
2023-05-12T00:46:51.772Z,101419.44
2023-05-12T00:49:20.541Z,101418.03
2023-05-12T00:51:48.974Z,101416.09
2023-05-12T00:54:17.827Z,101410.53
2023-05-12T00:56:46.734Z,101415.88
2023-05-12T00:59:16.139Z,101413.22
2023-05-12T01:01:45.200Z,101411.97
2023-05-12T01:04:14.151Z,101407.84
2023-05-12T01:06:42.628Z,101403.72
2023-05-12T01:09:11.631Z,101403.72
2023-05-12T01:11:40.095Z,101401.78
2023-05-12T01:14:08.748Z,101403.72
2023-05-12T01:16:38.679Z,101396.22
2023-05-12T01:19:08.244Z,101396.22
2023-05-12T01:21:37.740Z,101395.50
2023-05-12T01:24:06.845Z,101395.50
2023-05-12T01:26:36.467Z,101400.84
2023-05-12T01:29:05.585Z,101394.06
2023-05-12T01:31:34.621Z,101391.22
2023-05-12T01:34:03.102Z,101401.91
2023-05-12T01:36:31.742Z,101390.47
2023-05-12T01:39:00.958Z,101389.75
2023-05-12T01:41:30.153Z,101389.75
2023-05-12T01:43:58.636Z,101392.44
2023-05-12T01:46:27.280Z,101388.31
2023-05-12T01:48:59.284Z,101386.88
2023-05-12T01:51:29.392Z,101393.66
2023-05-12T01:54:01.090Z,101393.66
2023-05-12T01:56:34.355Z,101395.63
2023-05-12T01:59:03.184Z,101392.25
2023-05-12T02:01:32.206Z,101386.16
2023-05-12T02:04:01.209Z,101388.13
2023-05-12T02:06:30.480Z,101388.13
2023-05-12T02:08:59.379Z,101378.63
2023-05-12T02:11:28.729Z,101384.00
2023-05-12T02:13:57.910Z,101388.63
2023-05-12T02:16:26.728Z,101379.88
2023-05-12T02:18:55.287Z,101390.41
2023-05-12T02:21:23.843Z,101376.28
2023-05-12T02:23:54.263Z,101378.97
2023-05-12T02:26:23.675Z,101378.97
2023-05-12T02:28:53.644Z,101379.47
2023-05-12T02:31:23.218Z,101376.78
2023-05-12T02:33:52.634Z,101366.06
2023-05-12T02:36:21.714Z,101371.44
2023-05-12T02:38:51.137Z,101371.44
2023-05-12T02:41:20.034Z,101370.03
2023-05-12T02:43:49.206Z,101370.53
2023-05-12T02:46:19.353Z,101373.91
2023-05-12T02:48:48.330Z,101368.56
2023-05-12T02:51:17.235Z,101375.16
2023-05-12T02:53:46.016Z,101371.75
2023-05-12T02:56:14.467Z,101367.13
2023-05-12T02:58:42.894Z,101363.72
2023-05-12T03:01:12.005Z,101363.72
2023-05-12T03:03:42.172Z,101361.06
2023-05-12T03:06:11.497Z,101365.00
2023-05-12T03:08:40.240Z,101364.28
2023-05-12T03:11:08.605Z,101364.28
2023-05-12T03:13:37.112Z,101357.47
2023-05-12T03:16:06.054Z,101357.47
2023-05-12T03:18:34.525Z,101356.25
2023-05-12T03:21:03.542Z,101369.63
2023-05-12T03:23:32.463Z,101356.03
2023-05-12T03:26:00.550Z,101357.47
2023-05-12T03:28:28.843Z,101351.91
2023-05-12T03:30:57.821Z,101354.56
2023-05-12T03:33:26.993Z,101351.91
2023-05-12T03:35:56.255Z,101347.81
2023-05-12T03:38:25.169Z,101346.53
2023-05-12T03:40:53.450Z,101351.91
2023-05-12T03:43:22.600Z,101346.53
2023-05-12T03:45:51.504Z,101350.50
2023-05-12T03:48:20.768Z,101349.03
2023-05-12T03:50:49.230Z,101348.56
2023-05-12T03:53:18.547Z,101347.81
2023-05-12T03:55:47.504Z,101341.75
2023-05-12T03:58:16.423Z,101343.69
2023-05-12T04:00:45.398Z,101337.13
2023-05-12T04:03:13.922Z,101346.34
2023-05-12T04:05:42.962Z,101341.00
2023-05-12T04:08:11.535Z,101351.00
2023-05-12T04:10:40.027Z,101347.09
2023-05-12T04:13:08.977Z,101357.06
2023-05-12T04:15:37.879Z,101360.47
2023-05-12T04:18:06.697Z,101351.72
2023-05-12T04:20:35.062Z,101358.53
2023-05-12T04:23:03.581Z,101357.06
2023-05-12T04:25:32.665Z,101359.94
2023-05-12T04:28:01.653Z,101364.06
2023-05-12T04:30:30.646Z,101362.59
2023-05-12T04:33:00.786Z,101359.94
2023-05-12T04:35:29.746Z,101367.47
2023-05-12T04:37:58.834Z,101361.38
2023-05-12T04:40:27.833Z,101368.91
2023-05-12T04:42:56.956Z,101368.16
2023-05-12T04:45:26.194Z,101369.63
2023-05-12T04:47:54.600Z,101373.53
2023-05-12T04:50:23.466Z,101377.66
2023-05-12T04:52:52.288Z,101387.81
2023-05-12T04:55:21.705Z,101376.59
2023-05-12T04:57:50.865Z,101380.72
2023-05-12T05:00:20.364Z,101397.53
2023-05-12T05:02:50.085Z,101398.19
2023-05-12T05:05:18.872Z,101395.53
2023-05-12T05:07:47.601Z,101395.75
2023-05-12T05:10:16.011Z,101398.63
2023-05-12T05:12:46.010Z,101394.69
2023-05-12T05:15:15.103Z,101402.94
2023-05-12T05:17:43.675Z,101402.94
2023-05-12T05:20:15.443Z,101396.16
2023-05-12T05:22:45.843Z,101404.38
2023-05-12T05:25:15.540Z,101407.97
2023-05-12T05:27:44.634Z,101404.59
2023-05-12T05:30:12.711Z,101399.41
2023-05-12T05:32:43.328Z,101415.69
2023-05-12T05:35:13.302Z,101415.69
2023-05-12T05:37:46.488Z,101424.63
2023-05-12T05:40:15.629Z,101425.53
2023-05-12T05:42:44.595Z,101424.50
2023-05-12T05:45:13.230Z,101427.56
2023-05-12T05:47:42.579Z,101430.66
2023-05-12T05:50:11.566Z,101429.63
2023-05-12T05:52:42.168Z,101428.59
2023-05-12T05:55:11.593Z,101427.56
2023-05-12T05:57:40.593Z,101430.41
2023-05-12T06:00:08.364Z,101436.16
2023-05-12T06:02:45.708Z,101433.16
2023-05-12T06:05:18.966Z,101434.28
2023-05-12T06:07:48.103Z,101444.31
2023-05-12T06:10:17.188Z,101444.94
2023-05-12T06:12:46.176Z,101446.75
2023-05-12T06:15:15.901Z,101447.13
2023-05-12T06:17:44.410Z,101457.53
2023-05-12T06:20:12.902Z,101453.06
2023-05-12T06:22:42.206Z,101458.66
2023-05-12T06:25:11.179Z,101473.69
2023-05-12T06:27:39.601Z,101477.97
2023-05-12T06:30:08.036Z,101478.38
2023-05-12T06:32:36.903Z,101484.13
2023-05-12T06:35:06.283Z,101489.16
2023-05-12T06:37:34.752Z,101488.81
2023-05-12T06:40:03.859Z,101479.72
2023-05-12T06:42:32.394Z,101481.34
2023-05-12T06:45:03.918Z,101497.84
2023-05-12T06:47:33.692Z,101483.19
2023-05-12T06:50:02.561Z,101495.34
2023-05-12T06:52:31.871Z,101494.50
2023-05-12T06:55:00.413Z,101500.44
2023-05-12T06:57:28.535Z,101507.28
2023-05-12T06:59:57.230Z,101505.88
2023-05-12T07:02:26.173Z,101506.66
2023-05-12T07:04:55.526Z,101503.84
2023-05-12T07:07:24.469Z,101515.66
2023-05-12T07:09:53.825Z,101512.09
2023-05-12T07:12:23.070Z,101507.13
2023-05-12T07:14:52.401Z,101515.34
2023-05-12T07:17:21.528Z,101510.34
2023-05-12T07:19:49.869Z,101511.47
2023-05-12T07:22:19.178Z,101507.91
2023-05-12T07:24:48.620Z,101517.94
2023-05-12T07:27:18.037Z,101520.50
2023-05-12T07:29:46.988Z,101517.28
2023-05-12T07:32:16.404Z,101517.81
2023-05-12T07:34:45.350Z,101515.19
2023-05-12T07:37:14.109Z,101521.66
2023-05-12T07:39:42.853Z,101526.34
2023-05-12T07:42:11.693Z,101522.06
2023-05-12T07:44:40.628Z,101527.97
2023-05-12T07:47:10.500Z,101528.19
2023-05-12T07:49:39.875Z,101530.31
2023-05-12T07:52:08.636Z,101537.50
2023-05-12T07:54:37.384Z,101541.97
2023-05-12T07:57:06.699Z,101527.25
2023-05-12T07:59:35.400Z,101538.19
2023-05-12T08:02:04.697Z,101545.69
2023-05-12T08:04:33.589Z,101539.59
2023-05-12T08:07:03.015Z,101538.16
2023-05-12T08:09:31.871Z,101544.78
2023-05-12T08:12:00.616Z,101538.09
2023-05-12T08:14:29.815Z,101545.06
2023-05-12T08:16:59.162Z,101544.47
2023-05-12T08:19:28.462Z,101545.19
2023-05-12T08:21:57.357Z,101552.69
2023-05-12T08:24:26.773Z,101549.75
2023-05-12T08:26:55.817Z,101551.09
2023-05-12T08:29:25.184Z,101553.09
2023-05-12T08:31:58.135Z,101557.47
2023-05-12T08:34:26.420Z,101551.56
2023-05-12T08:36:54.586Z,101555.53
2023-05-12T08:39:23.486Z,101555.72
2023-05-12T08:41:52.097Z,101557.66
2023-05-12T08:44:21.477Z,101562.13
2023-05-12T08:46:50.073Z,101559.47
2023-05-12T08:49:18.368Z,101573.84
2023-05-12T08:51:56.492Z,101569.47
2023-05-12T08:54:25.904Z,101569.13
2023-05-12T08:59:25.733Z,101577.88
2023-05-12T09:01:55.194Z,101579.75
2023-05-12T09:04:24.219Z,101581.31
2023-05-12T09:06:55.534Z,101578.03
2023-05-12T09:09:25.014Z,101585.69
2023-05-12T09:11:53.827Z,101586.31
2023-05-12T09:14:23.035Z,101590.53
2023-05-12T09:16:52.317Z,101590.06
2023-05-12T09:19:21.215Z,101595.28
2023-05-12T09:21:50.075Z,101602.22
2023-05-12T09:24:19.350Z,101596.09
2023-05-12T09:26:48.727Z,101594.25
2023-05-12T09:29:30.751Z,101601.41
2023-05-12T09:32:00.915Z,101607.72
2023-05-12T09:34:29.712Z,101608.19
2023-05-12T09:36:58.662Z,101602.75
2023-05-12T09:39:27.499Z,101614.88
2023-05-12T09:41:56.838Z,101609.63
2023-05-12T09:44:26.043Z,101616.06
2023-05-12T09:46:54.879Z,101608.78
2023-05-12T09:49:23.682Z,101616.47
2023-05-12T09:51:52.465Z,101614.06
2023-05-12T09:54:21.746Z,101615.47
2023-05-12T09:56:50.990Z,101623.72
2023-05-12T09:59:20.534Z,101618.00
2023-05-12T10:01:49.971Z,101619.88
2023-05-12T10:04:19.395Z,101622.88
2023-05-12T10:06:48.815Z,101618.91
2023-05-12T10:09:17.747Z,101617.78
2023-05-12T10:11:46.333Z,101621.03
2023-05-12T10:14:15.390Z,101613.22
2023-05-12T10:16:43.648Z,101621.91
2023-05-12T10:19:13.042Z,101625.63
2023-05-12T10:21:42.475Z,101615.53
2023-05-12T10:24:11.304Z,101623.78
2023-05-12T10:26:40.325Z,101623.94
2023-05-12T10:29:09.730Z,101633.19
2023-05-12T10:31:38.705Z,101620.94
2023-05-12T10:34:07.699Z,101618.78
2023-05-12T10:36:37.028Z,101625.91
2023-05-12T10:39:06.343Z,101632.47
2023-05-12T10:41:35.435Z,101621.19
2023-05-12T10:44:03.588Z,101624.78
2023-05-12T10:46:32.597Z,101630.75
2023-05-12T10:49:00.958Z,101630.03
2023-05-12T10:51:29.609Z,101624.84
2023-05-12T10:53:58.829Z,101630.66
2023-05-12T10:56:28.482Z,101635.84
2023-05-12T10:58:58.380Z,101629.88
2023-05-12T11:01:28.075Z,101638.38
2023-05-12T11:03:58.286Z,101631.25
2023-05-12T11:06:27.911Z,101629.81
2023-05-12T11:08:58.860Z,101639.19
2023-05-12T11:11:28.106Z,101628.66
2023-05-12T11:13:57.396Z,101633.28
2023-05-12T11:16:26.772Z,101636.97
2023-05-12T11:18:56.151Z,101629.25
2023-05-12T11:21:25.136Z,101636.59
2023-05-12T11:23:53.695Z,101640.19
2023-05-12T11:26:22.411Z,101638.16
2023-05-12T11:28:51.756Z,101639.19
2023-05-12T11:31:21.172Z,101642.47
2023-05-12T11:33:56.052Z,101638.59
2023-05-12T11:36:33.998Z,101638.78
2023-05-12T11:39:03.312Z,101642.09
2023-05-12T11:41:32.708Z,101632.53
2023-05-12T11:44:02.031Z,101647.09
2023-05-12T11:46:32.371Z,101640.41
2023-05-12T11:49:02.737Z,101635.16
2023-05-12T11:51:31.592Z,101652.78
2023-05-12T11:54:00.366Z,101643.00
2023-05-12T11:56:29.583Z,101642.34
2023-05-12T11:58:58.510Z,101639.13
2023-05-12T12:01:27.785Z,101643.59
2023-05-12T12:03:57.289Z,101637.56
2023-05-12T12:06:26.203Z,101640.53
2023-05-12T12:08:56.423Z,101637.50
2023-05-12T12:11:26.721Z,101646.34
2023-05-12T12:13:55.666Z,101649.91
2023-05-12T12:16:24.530Z,101651.16
2023-05-12T12:18:53.931Z,101653.03
2023-05-12T12:21:22.762Z,101642.13
2023-05-12T12:23:52.023Z,101643.47
2023-05-12T12:26:21.253Z,101640.56
2023-05-12T12:28:50.507Z,101643.13
2023-05-12T12:31:19.953Z,101656.44
2023-05-12T12:33:49.008Z,101649.16
2023-05-12T12:36:17.514Z,101648.25
2023-05-12T12:38:45.739Z,101657.75
2023-05-12T12:41:14.662Z,101664.59
2023-05-12T12:43:44.084Z,101661.75
2023-05-12T12:46:13.466Z,101654.38
2023-05-12T12:48:42.861Z,101659.28
2023-05-12T12:51:12.138Z,101650.91
2023-05-12T12:53:41.444Z,101652.47
2023-05-12T12:56:10.825Z,101651.72
2023-05-12T12:58:40.105Z,101659.44
2023-05-12T13:01:08.983Z,101656.59
2023-05-12T13:03:38.387Z,101657.78
2023-05-12T13:06:07.079Z,101659.16
2023-05-12T13:08:36.371Z,101656.59
2023-05-12T13:11:05.782Z,101660.84
2023-05-12T13:13:34.679Z,101653.13
2023-05-12T13:16:03.914Z,101650.53
2023-05-12T13:18:32.805Z,101662.81
2023-05-12T13:21:02.055Z,101662.03
2023-05-12T13:23:30.957Z,101665.53
2023-05-12T13:25:59.560Z,101656.88
2023-05-12T13:28:28.236Z,101656.44
2023-05-12T13:30:57.748Z,101649.84
2023-05-12T13:33:27.148Z,101656.34
2023-05-12T13:35:56.449Z,101659.22
2023-05-12T13:38:25.278Z,101658.22
2023-05-12T13:40:54.541Z,101651.03
2023-05-12T13:43:23.739Z,101646.97
2023-05-12T13:45:52.629Z,101646.28
2023-05-12T13:48:21.889Z,101655.16
2023-05-12T13:50:50.684Z,101648.78
2023-05-12T13:53:19.538Z,101655.28
2023-05-12T13:55:48.614Z,101655.63
2023-05-12T13:58:17.393Z,101647.06
2023-05-12T14:00:46.757Z,101652.16
2023-05-12T14:03:16.042Z,101646.66
2023-05-12T14:05:45.247Z,101649.63
2023-05-12T14:08:14.057Z,101649.63
2023-05-12T14:10:43.418Z,101642.75
2023-05-12T14:13:12.815Z,101638.56
2023-05-12T14:15:48.807Z,101632.91
2023-05-12T14:18:18.645Z,101638.69
2023-05-12T14:20:47.942Z,101636.88
2023-05-12T14:23:17.017Z,101636.59
2023-05-12T14:25:44.936Z,101641.31
2023-05-12T14:28:13.803Z,101638.69
2023-05-12T14:30:43.277Z,101633.38
2023-05-12T14:33:12.723Z,101634.63
2023-05-12T14:35:43.241Z,101632.00
2023-05-12T14:38:14.050Z,101629.66
2023-05-12T14:40:43.525Z,101624.63
2023-05-12T14:43:13.027Z,101623.69
2023-05-12T14:45:41.876Z,101629.75
2023-05-12T14:48:11.156Z,101628.03
2023-05-12T14:50:39.451Z,101628.81
2023-05-12T14:53:08.728Z,101628.22
2023-05-12T14:55:37.959Z,101613.91
2023-05-12T14:58:07.064Z,101625.66
2023-05-12T15:00:35.712Z,101620.81
2023-05-12T15:03:05.058Z,101621.41
2023-05-12T15:05:52.553Z,101626.63
2023-05-12T15:08:21.776Z,101629.94
2023-05-12T15:10:51.144Z,101625.34
2023-05-12T15:13:20.034Z,101623.59
2023-05-12T15:15:50.230Z,101627.53
2023-05-12T15:18:20.374Z,101629.72
2023-05-12T15:20:49.203Z,101631.84
2023-05-12T15:23:18.732Z,101629.00
2023-05-12T15:25:47.903Z,101625.00
2023-05-12T15:28:16.554Z,101619.63
2023-05-12T15:30:45.795Z,101616.91
2023-05-12T15:33:15.013Z,101620.75
2023-05-12T15:35:47.845Z,101628.03
2023-05-12T15:38:16.610Z,101621.31
2023-05-12T15:40:45.462Z,101621.44
2023-05-12T15:43:14.722Z,101635.19
2023-05-12T15:45:43.984Z,101633.91
2023-05-12T15:48:13.391Z,101628.75
2023-05-12T15:50:42.688Z,101636.75
2023-05-12T15:53:11.872Z,101641.66
2023-05-12T15:55:40.709Z,101648.56
2023-05-12T15:58:10.035Z,101650.72
2023-05-12T16:00:39.351Z,101645.75
2023-05-12T16:03:08.777Z,101647.59
2023-05-12T16:05:37.797Z,101651.00
2023-05-12T16:08:06.689Z,101651.88
2023-05-12T16:10:35.984Z,101646.13
2023-05-12T16:13:05.397Z,101655.50
2023-05-12T16:15:34.293Z,101651.91
2023-05-12T16:18:03.244Z,101658.53
2023-05-12T16:20:32.562Z,101653.69
2023-05-12T16:23:02.089Z,101663.03
2023-05-12T16:25:31.056Z,101657.66
2023-05-12T16:27:59.922Z,101656.22
2023-05-12T16:30:29.147Z,101658.72
2023-05-12T16:32:57.978Z,101657.81
2023-05-12T16:35:27.050Z,101650.09
2023-05-12T16:37:55.881Z,101660.53
2023-05-12T16:40:25.049Z,101661.56
2023-05-12T16:42:53.868Z,101664.25
2023-05-12T16:45:23.537Z,101655.50
2023-05-12T16:47:52.965Z,101669.13
2023-05-12T16:50:21.417Z,101664.47
2023-05-12T16:52:56.583Z,101658.22
2023-05-12T16:55:25.791Z,101664.25
2023-05-12T16:57:54.845Z,101666.94
2023-05-12T17:00:23.052Z,101665.53
2023-05-12T17:02:52.366Z,101669.47
2023-05-12T17:05:21.967Z,101670.56
2023-05-12T17:07:51.304Z,101678.63
2023-05-12T17:10:20.627Z,101677.00
2023-05-12T17:12:49.995Z,101679.53
2023-05-12T17:15:19.281Z,101684.53
2023-05-12T17:17:48.656Z,101692.41
2023-05-12T17:20:18.085Z,101689.56
2023-05-12T17:22:47.647Z,101697.47
2023-05-12T17:25:16.999Z,101701.03
2023-05-12T17:27:45.902Z,101696.00
2023-05-12T17:30:14.823Z,101696.34
2023-05-12T17:32:43.715Z,101711.06
2023-05-12T17:35:13.175Z,101707.28
2023-05-12T17:37:42.075Z,101707.09
2023-05-12T17:40:11.540Z,101714.47
2023-05-12T17:42:40.645Z,101720.38
2023-05-12T17:45:09.095Z,101714.25
2023-05-12T17:47:37.779Z,101719.63
2023-05-12T17:50:07.126Z,101726.81
2023-05-12T17:52:36.315Z,101724.63
2023-05-12T17:55:05.579Z,101720.53
2023-05-12T17:57:34.998Z,101720.31
2023-05-12T18:00:03.875Z,101718.91
2023-05-12T18:02:41.854Z,101728.03
2023-05-12T18:05:10.761Z,101729.28
2023-05-12T18:07:40.198Z,101729.09
2023-05-12T18:10:09.542Z,101722.09
2023-05-12T18:12:38.436Z,101728.53
2023-05-12T18:15:07.836Z,101728.88
2023-05-12T18:17:37.370Z,101734.78
2023-05-12T18:20:06.493Z,101737.84
2023-05-12T18:22:34.475Z,101742.47
2023-05-12T18:25:03.147Z,101750.34
2023-05-12T18:27:32.435Z,101748.00
2023-05-12T18:30:01.432Z,101745.31
2023-05-12T18:32:30.128Z,101744.41
2023-05-12T18:34:59.447Z,101748.88
2023-05-12T18:37:28.667Z,101745.28
2023-05-12T18:39:57.849Z,101748.50
2023-05-12T18:42:26.972Z,101752.44
2023-05-12T18:44:55.796Z,101750.28
2023-05-12T18:47:24.961Z,101754.22
2023-05-12T18:49:54.284Z,101756.72
2023-05-12T18:52:23.183Z,101755.25
2023-05-12T18:54:51.934Z,101755.81
2023-05-12T18:57:21.170Z,101769.78
2023-05-12T18:59:50.060Z,101760.25
2023-05-12T19:02:19.541Z,101765.44
2023-05-12T19:04:48.711Z,101773.31
2023-05-12T19:07:16.982Z,101777.25
2023-05-12T19:09:46.242Z,101779.75
2023-05-12T19:12:19.396Z,101784.94
2023-05-12T19:14:48.204Z,101782.03
2023-05-12T19:17:17.081Z,101785.97
2023-05-12T19:19:46.456Z,101789.91
2023-05-12T19:22:15.713Z,101785.78
2023-05-12T19:24:45.172Z,101790.97
2023-05-12T19:27:14.330Z,101799.53
2023-05-12T19:29:42.633Z,101800.06
2023-05-12T19:32:11.014Z,101795.94
2023-05-12T19:34:40.492Z,101810.59
2023-05-12T19:37:09.900Z,101807.72
2023-05-12T19:39:39.360Z,101814.91
2023-05-12T19:42:08.704Z,101815.41
2023-05-12T19:44:37.996Z,101817.91
2023-05-12T19:47:07.409Z,101819.16
2023-05-12T19:49:36.107Z,101819.66
2023-05-12T19:52:04.992Z,101816.97
2023-05-12T19:54:33.935Z,101824.84
2023-05-12T19:57:02.727Z,101826.81
2023-05-12T19:59:31.643Z,101825.91
2023-05-12T20:02:00.987Z,101830.53
2023-05-12T20:04:30.376Z,101828.38
2023-05-12T20:06:59.353Z,101831.59
2023-05-12T20:09:29.016Z,101834.09
2023-05-12T20:11:58.252Z,101832.66
2023-05-12T20:14:27.052Z,101835.13
2023-05-12T20:16:55.925Z,101833.72
2023-05-12T20:19:25.294Z,101840.09
2023-05-12T20:21:54.713Z,101842.25
2023-05-12T20:24:23.422Z,101839.38
2023-05-12T20:26:51.968Z,101842.59
2023-05-12T20:29:20.921Z,101848.69
2023-05-12T20:31:49.107Z,101847.97
2023-05-12T20:34:18.044Z,101847.97
2023-05-12T20:36:47.310Z,101846.50
2023-05-12T20:39:16.203Z,101849.72
2023-05-12T20:41:44.981Z,101853.16
2023-05-12T20:44:14.281Z,101861.91
2023-05-12T20:46:43.188Z,101862.41
2023-05-12T20:49:12.386Z,101860.25
2023-05-12T20:51:41.663Z,101860.97
2023-05-12T20:54:11.078Z,101864.88
2023-05-12T20:56:40.508Z,101872.94
2023-05-12T20:59:09.401Z,101862.75
2023-05-12T21:01:38.475Z,101857.91
2023-05-12T21:04:07.208Z,101861.84
2023-05-12T21:06:36.488Z,101868.44
2023-05-12T21:09:05.470Z,101867.19
2023-05-12T21:11:33.837Z,101864.31
2023-05-12T21:14:02.063Z,101874.34
2023-05-12T21:16:31.480Z,101876.28
2023-05-12T21:19:00.870Z,101877.53
2023-05-12T21:21:30.267Z,101872.16
2023-05-12T21:23:59.569Z,101870.72
2023-05-12T21:26:28.796Z,101885.38
2023-05-12T21:28:57.771Z,101881.28
2023-05-12T21:31:26.936Z,101877.13
2023-05-12T21:33:56.223Z,101873.72
2023-05-12T21:36:25.591Z,101881.06
2023-05-12T21:38:54.997Z,101884.97
2023-05-12T21:41:24.371Z,101878.19
2023-05-12T21:43:53.143Z,101881.38
2023-05-12T21:46:22.111Z,101880.66
2023-05-12T21:48:50.234Z,101884.59
2023-05-12T21:51:19.505Z,101884.59
2023-05-12T21:53:48.919Z,101888.53
2023-05-12T21:56:18.284Z,101885.09
2023-05-12T21:58:47.662Z,101892.97
2023-05-12T22:01:16.616Z,101895.66
2023-05-12T22:03:45.889Z,101894.91
2023-05-12T22:06:14.767Z,101893.47
2023-05-12T22:08:43.389Z,101893.47
2023-05-12T22:11:12.130Z,101895.97
2023-05-12T22:13:41.356Z,101900.59
2023-05-12T22:16:10.519Z,101899.88
2023-05-12T22:18:38.743Z,101903.81
2023-05-12T22:21:08.173Z,101906.50
2023-05-12T22:23:37.689Z,101899.66
2023-05-12T22:26:07.156Z,101907.00
2023-05-12T22:28:36.029Z,101907.00
2023-05-12T22:31:05.248Z,101898.22
2023-05-12T22:33:34.653Z,101904.84
2023-05-12T22:36:03.125Z,101902.16
2023-05-12T22:38:31.793Z,101904.84
2023-05-12T22:41:00.671Z,101900.50
2023-05-12T22:43:29.984Z,101913.91
2023-05-12T22:45:59.033Z,101908.53
2023-05-12T22:48:28.016Z,101899.78
2023-05-12T22:50:57.856Z,101899.06
2023-05-12T22:53:27.114Z,101912.47
2023-05-12T22:55:56.439Z,101913.03
2023-05-12T22:58:25.807Z,101909.59
2023-05-12T23:00:54.657Z,101909.59
2023-05-12T23:03:23.850Z,101912.28
2023-05-12T23:05:53.257Z,101913.69
2023-05-12T23:08:22.129Z,101914.75
2023-05-12T23:10:51.468Z,101908.13
2023-05-12T23:13:20.268Z,101909.38
2023-05-12T23:15:49.015Z,101913.31
2023-05-12T23:18:18.292Z,101906.50
2023-05-12T23:20:47.165Z,101906.50
2023-05-12T23:23:16.506Z,101902.59
2023-05-12T23:25:45.760Z,101906.50
2023-05-12T23:28:14.703Z,101904.34
2023-05-12T23:30:43.228Z,101901.66
2023-05-12T23:33:12.626Z,101908.97
2023-05-12T23:35:41.378Z,101905.03
2023-05-12T23:38:10.173Z,101906.28
2023-05-12T23:40:39.223Z,101907.53
2023-05-12T23:43:07.281Z,101902.16
2023-05-12T23:45:35.842Z,101900.72
2023-05-12T23:48:04.986Z,101896.59
2023-05-12T23:50:33.803Z,101898.56
2023-05-12T23:53:02.494Z,101897.88
2023-05-12T23:55:31.759Z,101892.50
2023-05-12T23:58:01.000Z,101895.66
